Latest Weather Observations for Kurnell

IDN60901

Issued at 12:51 pm EST Tuesday 21 April 2015 (issued every 10 minutes, with the page automatically refreshed every 10 minutes)

About weather observations | Map of Sydney area stations | Latest observations for Sydney area | Other Formats
Station Details ID: 066043 Name: KURNELL AWS Lat: -34.00 Lon: 151.21 Height: 4.0 m
Data from the previous 72 hours. | See also: Recent months for locations in New South Wales
Date/Time
EST
Tmp

°C
App
Tmp
°C
Dew
Point
°C
Rel
Hum
%
Delta-T

°C
Wind Press
QNH
hPa
Press
MSL
hPa
Rain
since
9 am
mm
Dir
 
Spd
km/h
Gust
km/h
Spd
kts
Gust
kts
21/12:30pm - - - - - S 54 74 29 40 - - -
21/12:00pm - - - - - S 57 89 31 48 - - -
21/11:30am - - - - - S 59 85 32 46 - - -
21/11:00am - - - - - S 56 74 30 40 - - -
21/10:30am - - - - - S 56 83 30 45 - - -
21/10:00am - - - - - S 52 76 28 41 - - -
21/09:30am - - - - - S 56 82 30 44 - - -
21/09:00am - - - - - S 50 89 27 48 - - -
21/08:30am - - - - - S 52 80 28 43 - - -
21/08:00am - - - - - S 57 87 31 47 - - -
21/07:30am - - - - - S 52 74 28 40 - - -
21/07:00am - - - - - S 54 78 29 42 - - -
21/06:30am - - - - - S 56 76 30 41 - - -
21/06:00am - - - - - S 57 83 31 45 - - -
21/05:30am - - - - - S 57 80 31 43 - - -
21/05:00am - - - - - S 54 80 29 43 - - -
21/04:30am - - - - - S 54 80 29 43 - - -
21/04:00am - - - - - S 50 80 27 43 - - -
21/03:30am - - - - - S 57 85 31 46 - - -
21/03:00am - - - - - S 50 78 27 42 - - -
21/02:30am - - - - - S 52 74 28 40 - - -
21/02:03am - - - - - S 46 65 25 35 - - -
21/02:00am - - - - - S 46 63 25 34 - - -
21/01:30am - - - - - S 56 74 30 40 - - -
21/01:00am - - - - - S 52 80 28 43 - - -
21/12:30am - - - - - S 46 72 25 39 - - -
 
Date/Time
EST
Tmp

°C
App
Tmp
°C
Dew
Point
°C
Rel
Hum
%
Delta-T

°C
Wind Press
QNH
hPa
Press
MSL
hPa
Rain
since
9 am
mm
Dir
 
Spd
km/h
Gust
km/h
Spd
kts
Gust
kts
20/11:30pm - - - - - S 50 74 27 40 - - -
20/11:00pm - - - - - S 50 69 27 37 - - -
20/10:30pm - - - - - S 54 80 29 43 - - -
20/10:00pm - - - - - S 50 70 27 38 - - -
20/09:30pm - - - - - S 48 69 26 37 - - -
20/09:00pm - - - - - S 48 70 26 38 - - -
20/08:30pm - - - - - S 50 69 27 37 - - -
20/08:00pm - - - - - S 48 70 26 38 - - -
20/07:30pm - - - - - S 50 83 27 45 - - -
20/07:00pm - - - - - S 46 69 25 37 - - -
20/06:30pm - - - - - S 52 76 28 41 - - -
20/06:00pm - - - - - S 52 80 28 43 - - -
20/05:30pm - - - - - S 50 72 27 39 - - -
20/05:00pm - - - - - S 48 74 26 40 - - -
20/04:30pm - - - - - S 50 74 27 40 - - -
20/04:00pm - - - - - S 52 80 28 43 - - -
20/03:33pm - - - - - S 48 70 26 38 - - -
20/03:30pm - - - - - S 46 63 25 34 - - -
20/03:00pm - - - - - SSE 44 70 24 38 - - -
20/02:35pm - - - - - SSE 43 67 23 36 - - -
20/02:30pm - - - - - SSE 43 59 23 32 - - -
20/02:00pm - - - - - SSE 43 61 23 33 - - -
20/01:30pm - - - - - SSE 41 61 22 33 - - -
20/01:00pm - - - - - S 43 67 23 36 - - -
20/12:32pm - - - - - S 44 65 24 35 - - -
20/12:30pm - - - - - S 46 61 25 33 - - -
20/12:00pm - - - - - S 48 69 26 37 - - -
20/11:44am - - - - - S 43 61 23 33 - - -
20/11:30am - - - - - S 41 56 22 30 - - -
20/11:10am - - - - - S 39 57 21 31 - - -
20/11:00am - - - - - S 43 59 23 32 - - -
20/10:43am - - - - - S 44 67 24 36 - - -
20/10:41am - - - - - S 44 67 24 36 - - -
20/10:31am - - - - - SSW 35 54 19 29 - - -
20/10:30am - - - - - SSW 35 48 19 26 - - -
20/10:21am - - - - - SSW 39 57 21 31 - - -
20/10:00am - - - - - SSW 46 61 25 33 - - -
20/09:40am - - - - - SSW 39 59 21 32 - - -
20/09:30am - - - - - S 39 56 21 30 - - -
20/09:23am - - - - - SSW 37 56 20 30 - - -
20/09:00am - - - - - S 39 52 21 28 - - -
20/08:30am - - - - - SSW 39 54 21 29 - - -
20/08:00am - - - - - SSW 43 61 23 33 - - -
20/07:55am - - - - - SSW 43 61 23 33 - - -
20/07:30am - - - - - SSW 46 63 25 34 - - -
20/07:09am - - - - - SSW 43 61 23 33 - - -
20/07:00am - - - - - SSW 41 57 22 31 - - -
20/06:34am - - - - - SSW 41 61 22 33 - - -
20/06:30am - - - - - SSW 43 57 23 31 - - -
20/06:12am - - - - - SSW 41 59 22 32 - - -
20/06:00am - - - - - SSW 41 56 22 30 - - -
20/05:30am - - - - - SSW 43 65 23 35 - - -
20/05:05am - - - - - SSW 39 57 21 31 - - -
20/05:00am - - - - - SW 35 52 19 28 - - -
20/04:30am - - - - - SW 44 63 24 34 - - -
20/04:00am - - - - - SSW 39 59 21 32 - - -
20/03:30am - - - - - SW 41 61 22 33 - - -
20/03:18am - - - - - SW 41 59 22 32 - - -
20/03:00am - - - - - SSW 46 59 25 32 - - -
20/02:37am - - - - - SSW 43 61 23 33 - - -
20/02:30am - - - - - SSW 43 54 23 29 - - -
20/02:08am - - - - - SSW 43 61 23 33 - - -
20/02:00am - - - - - SSW 48 63 26 34 - - -
20/01:30am - - - - - SW 39 63 21 34 - - -
20/01:00am - - - - - SW 43 63 23 34 - - -
20/12:32am - - - - - SW 37 56 20 30 - - -
20/12:30am - - - - - SW 39 56 21 30 - - -
20/12:06am - - - - - SSW 39 57 21 31 - - -
20/12:00am - - - - - SSW 37 50 20 27 - - -
 
Date/Time
EST
Tmp

°C
App
Tmp
°C
Dew
Point
°C
Rel
Hum
%
Delta-T

°C
Wind Press
QNH
hPa
Press
MSL
hPa
Rain
since
9 am
mm
Dir
 
Spd
km/h
Gust
km/h
Spd
kts
Gust
kts
19/11:37pm - - - - - SSW 41 59 22 32 - - -
19/11:30pm - - - - - SW 43 59 23 32 - - -
19/11:03pm - - - - - SSW 39 59 21 32 - - -
19/11:00pm - - - - - SSW 37 54 20 29 - - -
19/10:30pm - - - - - SSW 43 63 23 34 - - -
19/10:00pm - - - - - SSW 37 56 20 30 - - -
19/09:35pm - - - - - SSW 39 57 21 31 - - -
19/09:30pm - - - - - SSW 39 56 21 30 - - -
19/09:00pm - - - - - SSW 39 57 21 31 - - -
19/08:43pm - - - - - SSW 39 57 21 31 - - -
19/08:30pm - - - - - SSW 44 59 24 32 - - -
19/08:00pm - - - - - SSW 46 59 25 32 - - -
19/07:44pm - - - - - SSW 44 63 24 34 - - -
19/07:30pm - - - - - SSW 44 59 24 32 - - -
19/07:00pm - - - - - SSW 44 67 24 36 - - -
19/06:41pm - - - - - SSW 41 59 22 32 - - -
19/06:30pm - - - - - SSW 44 59 24 32 - - -
19/06:09pm - - - - - SSW 48 69 26 37 - - -
19/06:00pm - - - - - SSW 48 63 26 34 - - -
19/05:43pm - - - - - S 44 63 24 34 - - -
19/05:30pm - - - - - S 48 59 26 32 - - -
19/05:05pm - - - - - S 39 57 21 31 - - -
19/05:00pm - - - - - S 43 57 23 31 - - -
19/04:48pm - - - - - S 41 59 22 32 - - -
19/04:30pm - - - - - S 39 56 21 30 - - -
19/04:25pm - - - - - S 37 56 20 30 - - -
19/04:00pm - - - - - S 37 54 20 29 - - -
19/03:30pm - - - - - S 35 48 19 26 - - -
19/03:00pm - - - - - SSW 35 57 19 31 - - -
19/02:30pm - - - - - SSW 37 54 20 29 - - -
19/02:00pm - - - - - SSW 39 54 21 29 - - -
19/01:30pm - - - - - S 39 50 21 27 - - -
19/01:00pm - - - - - SSW 39 56 21 30 - - -
19/12:30pm - - - - - SSW 37 50 20 27 - - -
19/12:00pm - - - - - SSW 37 52 20 28 - - -
19/11:30am - - - - - SSW 33 46 18 25 - - -
19/11:00am - - - - - SSW 28 37 15 20 - - -
19/10:30am - - - - - SW 26 33 14 18 - - -
19/10:00am - - - - - W 26 30 14 16 - - -
19/09:30am - - - - - W 19 24 10 13 - - -
19/09:00am - - - - - WSW 22 30 12 16 - - -
19/08:30am - - - - - W 19 24 10 13 - - -
19/08:00am - - - - - W 24 32 13 17 - - -
19/07:30am - - - - - WNW 19 20 10 11 - - -
19/07:00am - - - - - WNW 17 19 9 10 - - -
19/06:30am - - - - - WNW 13 15 7 8 - - -
19/06:00am - - - - - W 13 15 7 8 - - -
19/05:30am - - - - - WSW 9 13 5 7 - - -
19/05:00am - - - - - WNW 15 19 8 10 - - -
19/04:30am - - - - - NW 15 19 8 10 - - -
19/04:00am - - - - - WNW 15 17 8 9 - - -
19/03:30am - - - - - WNW 15 17 8 9 - - -
19/03:00am - - - - - NW 15 20 8 11 - - -
19/02:30am - - - - - NNW 11 15 6 8 - - -
19/02:00am - - - - - NNE 13 15 7 8 - - -
19/01:30am - - - - - N 19 22 10 12 - - -
19/01:00am - - - - - N 20 26 11 14 - - -
19/12:30am - - - - - N 17 24 9 13 - - -
19/12:00am - - - - - NNW 17 22 9 12 - - -
 
Date/Time
EST
Tmp

°C
App
Tmp
°C
Dew
Point
°C
Rel
Hum
%
Delta-T

°C
Wind Press
QNH
hPa
Press
MSL
hPa
Rain
since
9 am
mm
Dir
 
Spd
km/h
Gust
km/h
Spd
kts
Gust
kts
18/11:30pm - - - - - NNW 17 22 9 12 - - -
18/11:00pm - - - - - NNW 17 26 9 14 - - -
18/10:30pm - - - - - N 30 35 16 19 - - -
18/10:00pm - - - - - NNW 33 50 18 27 - - -
18/09:30pm - - - - - NW 35 52 19 28 - - -
18/09:28pm - - - - - NW 33 52 18 28 - - -
18/09:00pm - - - - - NNE 26 30 14 16 - - -
18/08:30pm - - - - - NNE 26 33 14 18 - - -
18/08:00pm - - - - - NNE 24 30 13 16 - - -
18/07:30pm - - - - - NE 24 28 13 15 - - -
18/07:00pm - - - - - NNE 28 32 15 17 - - -
18/06:30pm - - - - - NNE 26 32 14 17 - - -
18/06:00pm - - - - - NNE 26 32 14 17 - - -
18/05:30pm - - - - - NE 26 30 14 16 - - -
18/05:00pm - - - - - NNE 26 33 14 18 - - -
18/04:30pm - - - - - NNE 28 33 15 18 - - -
18/04:00pm - - - - - N 28 37 15 20 - - -
18/03:30pm - - - - - NNE 24 32 13 17 - - -
18/03:00pm - - - - - NE 22 30 12 16 - - -
18/02:30pm - - - - - NE 30 33 16 18 - - -
18/02:00pm - - - - - NNE 26 32 14 17 - - -
18/01:30pm - - - - - N 22 28 12 15 - - -
18/01:00pm - - - - - N 30 39 16 21 - - -

Latest Capital City Observations: Canberra | Sydney | Melbourne | Brisbane | Adelaide | Perth | Hobart | Darwin

Other Formats:

Comma delimited format used in spreadsheet applications
http://www.bom.gov.au/fwo/IDN60901/IDN60901.95756.axf

JavaScript Object Notation format (JSON) in row-major order
http://www.bom.gov.au/fwo/IDN60901/IDN60901.95756.json